createdAt,value
2023-02-19T00:02:19.211Z,9.40
2023-02-19T00:04:45.982Z,9.39
2023-02-19T00:07:12.795Z,9.39
2023-02-19T00:09:39.603Z,9.33
2023-02-19T00:12:06.631Z,9.32
2023-02-19T00:14:33.375Z,9.31
2023-02-19T00:17:00.131Z,9.27
2023-02-19T00:19:28.043Z,9.28
2023-02-19T00:21:54.897Z,9.31
2023-02-19T00:24:27.746Z,9.29
2023-02-19T00:26:54.634Z,9.30
2023-02-19T00:29:25.215Z,9.31
2023-02-19T00:31:52.094Z,9.32
2023-02-19T00:34:19.032Z,9.32
2023-02-19T00:36:45.922Z,9.30
2023-02-19T00:39:18.270Z,9.31
2023-02-19T00:41:46.429Z,9.32
2023-02-19T00:44:15.003Z,9.29
2023-02-19T00:46:46.162Z,9.28
2023-02-19T00:49:20.961Z,9.27
2023-02-19T00:51:49.116Z,9.21
2023-02-19T00:54:17.213Z,9.18
2023-02-19T00:56:44.353Z,9.19
2023-02-19T00:59:11.426Z,9.21
2023-02-19T01:01:38.699Z,9.26
2023-02-19T01:04:06.859Z,9.24
2023-02-19T01:06:34.639Z,9.19
2023-02-19T01:09:02.299Z,9.19
2023-02-19T01:11:29.362Z,9.21
2023-02-19T01:14:01.678Z,9.22
2023-02-19T01:16:30.904Z,9.22
2023-02-19T01:18:59.016Z,9.22
2023-02-19T01:21:28.468Z,9.24
2023-02-19T01:23:56.788Z,9.24
2023-02-19T01:26:28.314Z,9.27
2023-02-19T01:28:59.859Z,9.30
2023-02-19T01:31:28.548Z,9.32
2023-02-19T01:34:04.510Z,9.34
2023-02-19T01:36:34.444Z,9.34
2023-02-19T01:39:05.046Z,9.33
2023-02-19T01:41:36.609Z,9.33
2023-02-19T01:44:11.223Z,9.35
2023-02-19T01:46:43.459Z,9.32
2023-02-19T01:49:15.211Z,9.32
2023-02-19T01:51:57.351Z,9.33
2023-02-19T01:54:30.948Z,9.34
2023-02-19T01:56:59.757Z,9.33
2023-02-19T01:59:26.787Z,9.33
2023-02-19T02:01:53.783Z,9.29
2023-02-19T02:04:20.656Z,9.30
2023-02-19T02:06:52.743Z,9.20
2023-02-19T02:09:40.996Z,9.20
2023-02-19T02:12:07.960Z,9.20
2023-02-19T02:14:39.293Z,9.20
2023-02-19T02:17:28.837Z,9.18
2023-02-19T02:20:14.778Z,9.21
2023-02-19T02:22:55.580Z,9.22
2023-02-19T02:25:59.785Z,9.20
2023-02-19T02:28:57.875Z,9.17
2023-02-19T02:31:39.137Z,9.17
2023-02-19T02:34:27.288Z,9.12
2023-02-19T02:36:56.733Z,9.14
2023-02-19T02:39:28.309Z,9.15
2023-02-19T02:42:18.371Z,9.15
2023-02-19T02:45:05.665Z,9.13
2023-02-19T02:47:42.797Z,9.15
2023-02-19T02:50:35.064Z,9.14
2023-02-19T02:53:30.284Z,9.09
2023-02-19T02:56:00.251Z,9.12
2023-02-19T02:58:30.072Z,9.09
2023-02-19T03:01:32.465Z,9.14
2023-02-19T03:04:12.353Z,9.20
2023-02-19T03:06:42.760Z,9.20
2023-02-19T03:09:40.518Z,9.17
2023-02-19T03:12:33.977Z,9.14
2023-02-19T03:15:28.354Z,9.12
2023-02-19T03:18:22.182Z,9.07
2023-02-19T03:20:55.934Z,9.07
2023-02-19T03:23:51.376Z,9.03
2023-02-19T03:26:21.032Z,9.06
2023-02-19T03:29:11.169Z,9.09
2023-02-19T03:31:41.043Z,9.07
2023-02-19T03:34:15.966Z,9.07
2023-02-19T03:37:03.366Z,9.09
2023-02-19T03:39:30.759Z,9.07
2023-02-19T03:42:15.655Z,9.04
2023-02-19T03:44:48.462Z,9.01
2023-02-19T03:47:32.750Z,9.04
2023-02-19T03:50:17.246Z,9.07
2023-02-19T03:53:34.476Z,9.12
2023-02-19T03:56:10.290Z,9.11
2023-02-19T03:59:14.800Z,9.10
2023-02-19T04:01:50.092Z,9.06
2023-02-19T04:04:39.610Z,9.09
2023-02-19T04:07:06.754Z,9.05
2023-02-19T04:09:40.089Z,9.04
2023-02-19T04:12:16.342Z,9.04
2023-02-19T04:14:58.778Z,9.02
2023-02-19T04:17:33.548Z,8.99
2023-02-19T04:20:05.380Z,8.95
2023-02-19T04:22:33.577Z,8.89
2023-02-19T04:25:00.876Z,8.87
2023-02-19T04:27:27.828Z,8.90
2023-02-19T04:29:54.601Z,8.88
2023-02-19T04:32:21.354Z,8.88
2023-02-19T04:34:48.114Z,8.86
2023-02-19T04:37:14.934Z,8.91
2023-02-19T04:39:41.766Z,8.86
2023-02-19T04:42:10.756Z,8.87
2023-02-19T04:44:37.556Z,8.84
2023-02-19T04:47:04.910Z,8.85
2023-02-19T04:49:31.742Z,8.88
2023-02-19T04:51:59.026Z,8.86
2023-02-19T04:54:25.815Z,8.80
2023-02-19T04:56:52.669Z,8.82
2023-02-19T04:59:19.385Z,8.81
2023-02-19T05:01:46.472Z,8.81
2023-02-19T05:04:13.330Z,8.83
2023-02-19T05:06:40.352Z,8.81
2023-02-19T05:09:07.153Z,8.83
2023-02-19T05:11:34.056Z,8.78
2023-02-19T05:14:01.291Z,8.80
2023-02-19T05:16:28.063Z,8.81
2023-02-19T05:18:54.953Z,8.80
2023-02-19T05:21:21.756Z,8.81
2023-02-19T05:23:48.575Z,8.82
2023-02-19T05:26:22.240Z,8.79
2023-02-19T05:28:53.015Z,8.80
2023-02-19T05:31:21.475Z,8.78
2023-02-19T05:33:50.817Z,8.77
2023-02-19T05:36:20.076Z,8.77
2023-02-19T05:38:47.158Z,8.81
2023-02-19T05:41:24.247Z,8.86
2023-02-19T05:43:52.031Z,8.83
2023-02-19T05:46:24.222Z,8.82
2023-02-19T05:48:52.918Z,8.82
2023-02-19T05:51:23.996Z,8.78
2023-02-19T05:53:51.519Z,8.81
2023-02-19T05:56:30.091Z,8.82
2023-02-19T05:58:58.690Z,8.86
2023-02-19T06:01:28.521Z,8.84
2023-02-19T06:03:57.602Z,8.78
2023-02-19T06:06:26.253Z,8.79
2023-02-19T06:08:54.080Z,8.83
2023-02-19T06:11:21.680Z,8.84
2023-02-19T06:13:50.262Z,8.87
2023-02-19T06:16:18.188Z,8.86
2023-02-19T06:18:45.656Z,8.86
2023-02-19T06:21:13.966Z,8.85
2023-02-19T06:23:41.854Z,8.83
2023-02-19T06:26:09.927Z,8.84
2023-02-19T06:28:37.978Z,8.81
2023-02-19T06:31:06.355Z,8.82
2023-02-19T06:33:34.207Z,8.80
2023-02-19T06:36:03.806Z,8.83
2023-02-19T06:38:31.321Z,8.84
2023-02-19T06:41:06.598Z,8.83
2023-02-19T06:43:34.739Z,8.82
2023-02-19T06:46:04.831Z,8.83
2023-02-19T06:48:32.980Z,8.85
2023-02-19T06:50:59.849Z,8.83
2023-02-19T06:53:27.518Z,8.84
2023-02-19T06:56:06.164Z,8.83
2023-02-19T06:58:34.056Z,8.83
2023-02-19T07:01:01.461Z,8.87
2023-02-19T07:03:28.536Z,8.90
2023-02-19T07:05:55.440Z,8.92
2023-02-19T07:08:22.318Z,8.93
2023-02-19T07:10:58.108Z,8.94
2023-02-19T07:13:27.036Z,8.96
2023-02-19T07:16:11.003Z,8.95
2023-02-19T07:18:39.927Z,8.93
2023-02-19T07:21:14.046Z,8.91
2023-02-19T07:23:42.480Z,8.97
2023-02-19T07:26:15.407Z,9.02
2023-02-19T07:28:43.695Z,9.08
2023-02-19T07:31:11.752Z,9.13
2023-02-19T07:33:39.198Z,9.12
2023-02-19T07:36:09.459Z,9.17
2023-02-19T07:38:37.316Z,9.21
2023-02-19T07:41:07.064Z,9.24
2023-02-19T07:43:38.010Z,9.28
2023-02-19T07:46:13.782Z,9.30
2023-02-19T07:48:42.997Z,9.32
2023-02-19T07:51:18.826Z,9.33
2023-02-19T07:53:47.546Z,9.34
2023-02-19T07:56:14.837Z,9.41
2023-02-19T07:58:42.678Z,9.43
2023-02-19T08:01:17.865Z,9.45
2023-02-19T08:03:45.765Z,9.48
2023-02-19T08:06:13.033Z,9.51
2023-02-19T08:08:40.359Z,9.49
2023-02-19T08:11:27.174Z,9.54
2023-02-19T08:13:54.301Z,9.55
2023-02-19T08:16:36.706Z,9.54
2023-02-19T08:19:08.098Z,9.49
2023-02-19T08:21:35.140Z,9.51
2023-02-19T08:24:04.407Z,9.50
2023-02-19T08:26:32.604Z,9.49
2023-02-19T08:28:59.440Z,9.49
2023-02-19T08:31:29.855Z,9.41
2023-02-19T08:33:59.111Z,9.42
2023-02-19T08:36:26.280Z,9.39
2023-02-19T08:38:58.621Z,9.33
2023-02-19T08:41:25.547Z,9.35
2023-02-19T08:43:52.741Z,9.40
2023-02-19T08:46:19.577Z,9.45
2023-02-19T08:48:46.834Z,9.42
2023-02-19T08:51:14.148Z,9.43
2023-02-19T08:53:41.804Z,9.46
2023-02-19T08:56:16.088Z,9.50
2023-02-19T08:58:44.142Z,9.54
2023-02-19T09:01:15.338Z,9.55
2023-02-19T09:03:44.507Z,9.62
2023-02-19T09:06:20.094Z,9.77
2023-02-19T09:08:50.261Z,9.85
2023-02-19T09:11:17.791Z,9.87
2023-02-19T09:13:45.056Z,9.90
2023-02-19T09:16:12.543Z,9.92
2023-02-19T09:18:39.552Z,9.98
2023-02-19T09:21:07.253Z,9.91
2023-02-19T09:23:36.974Z,9.86
2023-02-19T09:26:11.260Z,9.84
2023-02-19T09:28:42.030Z,9.98
2023-02-19T09:31:15.952Z,10.01
2023-02-19T09:33:48.679Z,10.05
2023-02-19T09:36:16.803Z,10.06
2023-02-19T09:38:43.815Z,10.08
2023-02-19T09:41:32.525Z,9.99
2023-02-19T09:44:03.351Z,9.97
2023-02-19T09:46:46.108Z,9.99
2023-02-19T09:49:25.996Z,9.99
2023-02-19T09:52:00.779Z,9.97
2023-02-19T09:54:31.751Z,10.00
2023-02-19T09:57:02.378Z,9.97
2023-02-19T09:59:40.521Z,9.97
2023-02-19T10:02:23.003Z,10.06
2023-02-19T10:04:52.097Z,10.13
2023-02-19T10:07:24.692Z,10.15
2023-02-19T10:10:21.205Z,10.16
2023-02-19T10:12:55.930Z,10.20
2023-02-19T10:15:53.182Z,10.18
2023-02-19T10:18:30.881Z,10.13
2023-02-19T10:20:58.510Z,10.12
2023-02-19T10:23:27.114Z,10.19
2023-02-19T10:26:00.110Z,10.22
2023-02-19T10:28:33.692Z,10.17
2023-02-19T10:31:07.207Z,10.17
2023-02-19T10:33:54.479Z,10.20
2023-02-19T10:36:36.178Z,10.28
2023-02-19T10:39:21.425Z,10.34
2023-02-19T10:41:53.747Z,10.36
2023-02-19T10:44:38.530Z,10.41
2023-02-19T10:47:06.686Z,10.39
2023-02-19T10:49:43.214Z,10.34
2023-02-19T10:52:21.355Z,10.31
2023-02-19T10:54:56.603Z,10.31
2023-02-19T10:57:33.845Z,10.22
2023-02-19T11:00:22.527Z,10.23
2023-02-19T11:02:49.589Z,10.18
2023-02-19T11:05:21.491Z,10.19
2023-02-19T11:07:57.003Z,10.19
2023-02-19T11:10:34.034Z,10.26
2023-02-19T11:13:05.944Z,10.35
2023-02-19T11:15:37.242Z,10.47
2023-02-19T11:18:15.238Z,10.49
2023-02-19T11:20:56.164Z,10.62
2023-02-19T11:23:34.893Z,10.73
2023-02-19T11:26:07.160Z,10.73
2023-02-19T11:28:39.873Z,10.74
2023-02-19T11:31:20.333Z,10.79
2023-02-19T11:34:01.693Z,10.89
2023-02-19T11:36:35.726Z,10.93
2023-02-19T11:39:16.828Z,10.91
2023-02-19T11:42:29.706Z,10.90
2023-02-19T11:45:16.953Z,10.96
2023-02-19T11:48:04.174Z,10.96
2023-02-19T11:51:02.100Z,10.91
2023-02-19T11:53:33.263Z,10.92
2023-02-19T11:56:37.200Z,10.97
2023-02-19T11:59:17.517Z,10.96
2023-02-19T12:02:26.346Z,11.00
2023-02-19T12:05:27.313Z,11.07
2023-02-19T12:08:30.752Z,11.25
2023-02-19T12:11:24.780Z,11.40
2023-02-19T12:14:57.861Z,11.64
2023-02-19T12:17:56.590Z,11.75
2023-02-19T12:20:42.006Z,11.88
2023-02-19T12:23:36.252Z,11.97
2023-02-19T12:26:29.144Z,11.98
2023-02-19T12:29:24.181Z,11.89
2023-02-19T12:32:13.188Z,12.13
2023-02-19T12:34:55.250Z,12.34
2023-02-19T12:38:08.118Z,13.70
2023-02-19T12:40:58.941Z,14.08
2023-02-19T12:43:25.953Z,14.10
2023-02-19T12:45:59.099Z,13.51
2023-02-19T12:48:39.335Z,13.15
2023-02-19T12:51:24.974Z,12.90
2023-02-19T12:54:01.484Z,12.54
2023-02-19T12:56:49.104Z,12.17
2023-02-19T12:59:26.496Z,12.14
2023-02-19T13:02:16.211Z,12.09
2023-02-19T13:05:21.135Z,11.87
2023-02-19T13:08:02.471Z,11.93
2023-02-19T13:10:54.777Z,11.96
2023-02-19T13:14:04.418Z,11.78
2023-02-19T13:16:34.593Z,11.66
2023-02-19T13:19:04.575Z,11.70
2023-02-19T13:21:57.224Z,11.83
2023-02-19T13:24:40.704Z,11.94
2023-02-19T13:30:43.621Z,11.80
2023-02-19T13:33:46.542Z,11.74
2023-02-19T13:36:24.116Z,11.73
2023-02-19T13:38:52.105Z,11.61
2023-02-19T13:41:29.274Z,11.62
2023-02-19T13:44:05.413Z,11.65
2023-02-19T13:46:45.544Z,11.64
2023-02-19T13:49:29.164Z,11.71
2023-02-19T13:52:02.167Z,11.97
2023-02-19T13:54:39.967Z,12.35
2023-02-19T13:57:22.214Z,12.37
2023-02-19T13:59:52.107Z,12.26
2023-02-19T14:02:22.073Z,12.18
2023-02-19T14:05:05.525Z,12.07
2023-02-19T14:08:04.196Z,12.02
2023-02-19T14:10:51.279Z,11.94
2023-02-19T14:13:52.303Z,11.95
2023-02-19T14:16:29.986Z,12.00
2023-02-19T14:18:58.309Z,11.97
2023-02-19T14:21:36.027Z,11.87
2023-02-19T14:24:05.126Z,11.71
2023-02-19T14:26:34.591Z,11.69
2023-02-19T14:29:03.223Z,11.69
2023-02-19T14:31:40.450Z,11.76
2023-02-19T14:34:22.350Z,11.69
2023-02-19T14:36:56.389Z,11.57
2023-02-19T14:39:31.550Z,11.38
2023-02-19T14:42:04.578Z,11.35
2023-02-19T14:44:51.342Z,11.40
2023-02-19T14:47:22.882Z,11.34
2023-02-19T14:50:02.130Z,11.29
2023-02-19T14:52:44.556Z,11.38
2023-02-19T14:55:35.042Z,11.34
2023-02-19T14:58:11.138Z,11.25
2023-02-19T15:00:41.797Z,11.21
2023-02-19T15:03:38.956Z,11.14
2023-02-19T15:06:14.363Z,11.18
2023-02-19T15:08:47.821Z,11.04
2023-02-19T15:11:23.193Z,10.98
2023-02-19T15:13:57.205Z,11.07
2023-02-19T15:16:27.032Z,11.08
2023-02-19T15:18:59.609Z,11.04
2023-02-19T15:21:31.210Z,10.90
2023-02-19T15:24:05.983Z,10.84
2023-02-19T15:26:40.577Z,10.79
2023-02-19T15:29:14.760Z,10.80
2023-02-19T15:32:01.286Z,10.79
2023-02-19T15:34:31.917Z,10.82
2023-02-19T15:37:02.721Z,10.81
2023-02-19T15:39:37.791Z,10.87
2023-02-19T15:42:09.911Z,10.90
2023-02-19T15:44:39.419Z,10.90
2023-02-19T15:47:16.295Z,10.87
2023-02-19T15:49:52.996Z,10.80
2023-02-19T15:52:45.429Z,10.81
2023-02-19T15:55:15.164Z,10.77
2023-02-19T15:57:51.188Z,10.74
2023-02-19T16:00:40.788Z,10.72
2023-02-19T16:03:20.886Z,10.62
2023-02-19T16:06:14.014Z,10.56
2023-02-19T16:08:43.968Z,10.57
2023-02-19T16:11:22.985Z,10.56
2023-02-19T16:13:51.877Z,10.50
2023-02-19T16:16:39.408Z,10.47
2023-02-19T16:19:06.261Z,10.45
2023-02-19T16:21:33.760Z,10.42
2023-02-19T16:24:16.099Z,10.41
2023-02-19T16:26:45.527Z,10.41
2023-02-19T16:29:25.565Z,10.37
2023-02-19T16:32:06.570Z,10.31
2023-02-19T16:34:53.083Z,10.32
2023-02-19T16:37:34.464Z,10.31
2023-02-19T16:40:21.535Z,10.32
2023-02-19T16:42:51.898Z,10.31
2023-02-19T16:45:19.208Z,10.29
2023-02-19T16:47:51.107Z,10.23
2023-02-19T16:50:24.964Z,10.22
2023-02-19T16:53:03.495Z,10.20
2023-02-19T16:55:37.516Z,10.17
2023-02-19T16:58:04.551Z,10.14
2023-02-19T17:00:32.633Z,10.09
2023-02-19T17:03:09.288Z,10.12
2023-02-19T17:05:38.908Z,10.15
2023-02-19T17:08:42.717Z,10.16
2023-02-19T17:11:16.032Z,10.13
2023-02-19T17:13:48.785Z,10.09
2023-02-19T17:16:21.593Z,10.05
2023-02-19T17:18:48.712Z,10.04
2023-02-19T17:21:27.041Z,10.02
2023-02-19T17:23:55.700Z,10.03
2023-02-19T17:26:29.604Z,9.98
2023-02-19T17:28:58.919Z,9.94
2023-02-19T17:31:26.091Z,9.99
2023-02-19T17:33:53.788Z,10.00
2023-02-19T17:36:26.746Z,10.01
2023-02-19T17:38:54.245Z,10.00
2023-02-19T17:41:21.229Z,9.99
2023-02-19T17:43:50.274Z,9.96
2023-02-19T17:46:24.550Z,9.97
2023-02-19T17:48:52.935Z,9.94
2023-02-19T17:51:20.566Z,9.97
2023-02-19T17:53:47.637Z,9.94
2023-02-19T17:56:25.570Z,9.89
2023-02-19T17:58:53.915Z,9.89
2023-02-19T18:01:22.011Z,9.92
2023-02-19T18:03:50.383Z,9.96
2023-02-19T18:06:17.946Z,10.01
2023-02-19T18:08:53.181Z,10.00
2023-02-19T18:11:23.698Z,9.95
2023-02-19T18:13:52.873Z,9.99
2023-02-19T18:16:23.124Z,9.99
2023-02-19T18:18:50.701Z,9.99
2023-02-19T18:21:17.848Z,9.97
2023-02-19T18:23:46.043Z,9.97
2023-02-19T18:26:13.704Z,9.95
2023-02-19T18:28:40.574Z,9.94
2023-02-19T18:31:07.930Z,9.91
2023-02-19T18:33:36.279Z,9.89
2023-02-19T18:36:04.308Z,9.91
2023-02-19T18:38:31.320Z,9.90
2023-02-19T18:40:58.935Z,9.89
2023-02-19T18:43:26.325Z,9.87
2023-02-19T18:45:55.609Z,9.87
2023-02-19T18:48:23.785Z,9.89
2023-02-19T18:50:53.682Z,9.91
2023-02-19T18:53:20.562Z,9.92
2023-02-19T18:55:47.793Z,9.84
2023-02-19T18:58:14.764Z,9.84
2023-02-19T19:00:41.516Z,9.85
2023-02-19T19:03:08.394Z,9.86
2023-02-19T19:05:35.643Z,9.86
2023-02-19T19:08:02.642Z,9.89
2023-02-19T19:10:30.958Z,9.90
2023-02-19T19:12:58.428Z,9.89
2023-02-19T19:15:25.987Z,9.85
2023-02-19T19:17:53.207Z,9.85
2023-02-19T19:20:23.111Z,9.84
2023-02-19T19:22:54.190Z,9.82
2023-02-19T19:25:22.906Z,9.84
2023-02-19T19:27:51.668Z,9.85
2023-02-19T19:30:20.080Z,9.82
2023-02-19T19:32:52.464Z,9.79
2023-02-19T19:35:21.983Z,9.74
2023-02-19T19:37:52.331Z,9.72
2023-02-19T19:40:19.435Z,9.75
2023-02-19T19:42:46.825Z,9.74
2023-02-19T19:45:14.556Z,9.74
2023-02-19T19:47:41.664Z,9.76
2023-02-19T19:50:09.147Z,9.74
2023-02-19T19:52:36.423Z,9.75
2023-02-19T19:55:03.427Z,9.77
2023-02-19T19:57:30.198Z,9.77
2023-02-19T19:59:57.054Z,9.77
2023-02-19T20:02:24.046Z,9.75
2023-02-19T20:04:51.318Z,9.74
2023-02-19T20:07:18.488Z,9.75
2023-02-19T20:09:49.996Z,9.72
2023-02-19T20:12:18.153Z,9.72
2023-02-19T20:14:46.621Z,9.71
2023-02-19T20:17:14.881Z,9.71
2023-02-19T20:19:42.180Z,9.69
2023-02-19T20:22:09.056Z,9.69
2023-02-19T20:24:35.914Z,9.69
2023-02-19T20:27:02.917Z,9.66
2023-02-19T20:29:34.442Z,9.65
2023-02-19T20:32:03.543Z,9.69
2023-02-19T20:34:31.691Z,9.74
2023-02-19T20:36:59.118Z,9.70
2023-02-19T20:39:29.038Z,9.68
2023-02-19T20:41:57.389Z,9.68
2023-02-19T20:44:26.036Z,9.67
2023-02-19T20:46:54.419Z,9.66
2023-02-19T20:49:28.249Z,9.65
2023-02-19T20:51:59.856Z,9.59
2023-02-19T20:54:30.566Z,9.59
2023-02-19T20:57:01.066Z,9.61
2023-02-19T20:59:34.700Z,9.62
2023-02-19T21:02:08.028Z,9.59
2023-02-19T21:04:38.436Z,9.59
2023-02-19T21:07:05.174Z,9.58
2023-02-19T21:09:32.124Z,9.56
2023-02-19T21:11:59.960Z,9.51
2023-02-19T21:14:27.122Z,9.48
2023-02-19T21:16:54.285Z,9.43
2023-02-19T21:19:21.858Z,9.45
2023-02-19T21:21:48.712Z,9.48
2023-02-19T21:24:15.905Z,9.48
2023-02-19T21:26:44.239Z,9.45
2023-02-19T21:29:19.597Z,9.48
2023-02-19T21:31:54.533Z,9.49
2023-02-19T21:34:27.123Z,9.46
2023-02-19T21:36:55.677Z,9.47
2023-02-19T21:39:25.031Z,9.46
2023-02-19T21:41:53.639Z,9.49
2023-02-19T21:44:21.315Z,9.47
2023-02-19T21:46:48.537Z,9.46
2023-02-19T21:49:15.567Z,9.49
2023-02-19T21:51:45.110Z,9.48
2023-02-19T21:54:30.199Z,9.43
2023-02-19T21:56:57.310Z,9.44
2023-02-19T21:59:24.250Z,9.42
2023-02-19T22:01:51.044Z,9.45
2023-02-19T22:04:24.622Z,9.45
2023-02-19T22:06:56.277Z,9.41
2023-02-19T22:09:23.485Z,9.38
2023-02-19T22:11:50.375Z,9.40
2023-02-19T22:14:17.222Z,9.39
2023-02-19T22:16:44.343Z,9.40
2023-02-19T22:19:12.824Z,9.43
2023-02-19T22:21:44.386Z,9.46
2023-02-19T22:24:19.038Z,9.46
2023-02-19T22:26:50.633Z,9.47
2023-02-19T22:29:17.812Z,9.50
2023-02-19T22:31:45.100Z,9.48
2023-02-19T22:34:12.653Z,9.47
2023-02-19T22:36:40.344Z,9.48
2023-02-19T22:39:15.481Z,9.47
2023-02-19T22:41:43.614Z,9.44
2023-02-19T22:44:11.831Z,9.45
2023-02-19T22:46:38.775Z,9.42
2023-02-19T22:49:06.571Z,9.40
2023-02-19T22:51:35.528Z,9.39
2023-02-19T22:54:02.752Z,9.40
2023-02-19T22:56:30.208Z,9.41
2023-02-19T22:58:58.946Z,9.42
2023-02-19T23:01:26.240Z,9.41
2023-02-19T23:03:59.241Z,9.38
2023-02-19T23:06:29.322Z,9.34
2023-02-19T23:09:01.830Z,9.34
2023-02-19T23:11:32.848Z,9.35
2023-02-19T23:13:59.826Z,9.36
2023-02-19T23:16:27.267Z,9.35
2023-02-19T23:18:54.598Z,9.31
2023-02-19T23:21:23.441Z,9.30
2023-02-19T23:23:51.670Z,9.31
2023-02-19T23:26:20.627Z,9.33
2023-02-19T23:28:47.613Z,9.29
2023-02-19T23:31:16.166Z,9.28
2023-02-19T23:33:44.203Z,9.31
2023-02-19T23:36:12.246Z,9.32
2023-02-19T23:38:40.688Z,9.29
2023-02-19T23:41:13.144Z,9.28
2023-02-19T23:43:42.118Z,9.26
2023-02-19T23:46:13.188Z,9.25
2023-02-19T23:48:40.257Z,9.16
2023-02-19T23:51:07.091Z,9.17
2023-02-19T23:53:33.853Z,9.15
2023-02-19T23:56:00.877Z,9.11
2023-02-19T23:58:27.669Z,9.09
